sensor_id;sensor_type;location;lat;lon;timestamp;temperature;humidity
12557;DHT22;6344;49.932;8.308;2022-12-07T00:01:41;3.30;99.90
12557;DHT22;6344;49.932;8.308;2022-12-07T00:04:12;3.30;99.90
12557;DHT22;6344;49.932;8.308;2022-12-07T00:06:40;3.30;99.90
12557;DHT22;6344;49.932;8.308;2022-12-07T00:09:15;3.30;99.90
12557;DHT22;6344;49.932;8.308;2022-12-07T00:11:42;3.30;99.90
12557;DHT22;6344;49.932;8.308;2022-12-07T00:14:14;3.30;99.90
12557;DHT22;6344;49.932;8.308;2022-12-07T00:16:41;3.30;99.90
12557;DHT22;6344;49.932;8.308;2022-12-07T00:19:16;3.20;99.90
12557;DHT22;6344;49.932;8.308;2022-12-07T00:21:44;3.20;99.90
12557;DHT22;6344;49.932;8.308;2022-12-07T00:24:13;3.20;99.90
12557;DHT22;6344;49.932;8.308;2022-12-07T00:26:42;3.20;99.90
12557;DHT22;6344;49.932;8.308;2022-12-07T00:29:16;3.30;99.90
12557;DHT22;6344;49.932;8.308;2022-12-07T00:31:53;3.30;99.90
12557;DHT22;6344;49.932;8.308;2022-12-07T00:34:29;3.30;99.90
12557;DHT22;6344;49.932;8.308;2022-12-07T00:36:58;3.30;99.90
12557;DHT22;6344;49.932;8.308;2022-12-07T00:39:40;3.30;99.90
12557;DHT22;6344;49.932;8.308;2022-12-07T00:42:07;3.30;99.90
12557;DHT22;6344;49.932;8.308;2022-12-07T00:44:35;3.40;99.90
12557;DHT22;6344;49.932;8.308;2022-12-07T00:47:03;3.30;99.90
12557;DHT22;6344;49.932;8.308;2022-12-07T00:49:33;3.30;99.90
12557;DHT22;6344;49.932;8.308;2022-12-07T00:52:01;3.30;99.90
12557;DHT22;6344;49.932;8.308;2022-12-07T00:54:28;3.50;99.90
12557;DHT22;6344;49.932;8.308;2022-12-07T00:56:57;3.30;99.90
12557;DHT22;6344;49.932;8.308;2022-12-07T00:59:26;3.40;99.90
12557;DHT22;6344;49.932;8.308;2022-12-07T01:01:57;3.30;99.90
12557;DHT22;6344;49.932;8.308;2022-12-07T01:04:28;3.40;99.90
12557;DHT22;6344;49.932;8.308;2022-12-07T01:07:05;3.30;99.90
12557;DHT22;6344;49.932;8.308;2022-12-07T01:09:33;3.20;99.90
12557;DHT22;6344;49.932;8.308;2022-12-07T01:12:00;3.10;99.90
12557;DHT22;6344;49.932;8.308;2022-12-07T01:14:30;3.10;99.90
12557;DHT22;6344;49.932;8.308;2022-12-07T01:16:58;3.00;99.90
12557;DHT22;6344;49.932;8.308;2022-12-07T01:19:29;3.00;99.90
12557;DHT22;6344;49.932;8.308;2022-12-07T01:22:01;3.10;99.90
12557;DHT22;6344;49.932;8.308;2022-12-07T01:24:30;3.10;99.90
12557;DHT22;6344;49.932;8.308;2022-12-07T01:27:03;3.10;99.90
12557;DHT22;6344;49.932;8.308;2022-12-07T01:29:31;3.10;99.90
12557;DHT22;6344;49.932;8.308;2022-12-07T01:32:00;3.00;99.90
12557;DHT22;6344;49.932;8.308;2022-12-07T01:34:28;3.00;99.90
12557;DHT22;6344;49.932;8.308;2022-12-07T01:37:06;3.00;99.90
12557;DHT22;6344;49.932;8.308;2022-12-07T01:39:44;3.00;99.90
12557;DHT22;6344;49.932;8.308;2022-12-07T01:42:17;3.00;99.90
12557;DHT22;6344;49.932;8.308;2022-12-07T01:48:10;2.90;99.90
12557;DHT22;6344;49.932;8.308;2022-12-07T01:50:40;3.00;99.90
12557;DHT22;6344;49.932;8.308;2022-12-07T01:53:11;2.90;99.90
12557;DHT22;6344;49.932;8.308;2022-12-07T01:55:43;2.90;99.90
12557;DHT22;6344;49.932;8.308;2022-12-07T01:58:11;3.00;99.90
12557;DHT22;6344;49.932;8.308;2022-12-07T02:00:41;3.00;99.90
12557;DHT22;6344;49.932;8.308;2022-12-07T02:03:11;3.00;99.90
12557;DHT22;6344;49.932;8.308;2022-12-07T02:05:45;3.00;99.90
12557;DHT22;6344;49.932;8.308;2022-12-07T02:08:14;3.00;99.90
12557;DHT22;6344;49.932;8.308;2022-12-07T02:10:44;3.00;99.90
12557;DHT22;6344;49.932;8.308;2022-12-07T02:13:16;3.00;99.90
12557;DHT22;6344;49.932;8.308;2022-12-07T02:16:06;3.00;99.90
12557;DHT22;6344;49.932;8.308;2022-12-07T02:18:48;3.10;99.90
12557;DHT22;6344;49.932;8.308;2022-12-07T02:21:27;3.10;99.90
12557;DHT22;6344;49.932;8.308;2022-12-07T02:24:18;3.10;99.90
12557;DHT22;6344;49.932;8.308;2022-12-07T02:27:11;3.20;99.90
12557;DHT22;6344;49.932;8.308;2022-12-07T02:29:47;3.10;99.90
12557;DHT22;6344;49.932;8.308;2022-12-07T02:32:23;3.10;99.90
12557;DHT22;6344;49.932;8.308;2022-12-07T02:34:58;3.10;99.90
12557;DHT22;6344;49.932;8.308;2022-12-07T02:37:33;3.20;99.90
12557;DHT22;6344;49.932;8.308;2022-12-07T02:40:07;3.20;99.90
12557;DHT22;6344;49.932;8.308;2022-12-07T02:42:40;3.20;99.90
12557;DHT22;6344;49.932;8.308;2022-12-07T02:45:13;3.10;99.90
12557;DHT22;6344;49.932;8.308;2022-12-07T02:47:44;3.10;99.90
12557;DHT22;6344;49.932;8.308;2022-12-07T02:50:12;3.10;99.90
12557;DHT22;6344;49.932;8.308;2022-12-07T02:52:42;3.10;99.90
12557;DHT22;6344;49.932;8.308;2022-12-07T02:55:17;3.20;99.90
12557;DHT22;6344;49.932;8.308;2022-12-07T02:58:01;3.10;99.90
12557;DHT22;6344;49.932;8.308;2022-12-07T03:00:41;3.10;99.90
12557;DHT22;6344;49.932;8.308;2022-12-07T03:03:17;3.10;99.90
12557;DHT22;6344;49.932;8.308;2022-12-07T03:05:59;3.20;99.90
12557;DHT22;6344;49.932;8.308;2022-12-07T03:08:39;3.20;99.90
12557;DHT22;6344;49.932;8.308;2022-12-07T03:11:14;3.30;99.90
12557;DHT22;6344;49.932;8.308;2022-12-07T03:13:47;3.30;99.90
12557;DHT22;6344;49.932;8.308;2022-12-07T03:16:19;3.40;99.90
12557;DHT22;6344;49.932;8.308;2022-12-07T03:18:50;3.40;99.90
12557;DHT22;6344;49.932;8.308;2022-12-07T03:21:21;3.40;99.90
12557;DHT22;6344;49.932;8.308;2022-12-07T03:23:56;3.40;99.90
12557;DHT22;6344;49.932;8.308;2022-12-07T03:26:42;3.40;99.90
12557;DHT22;6344;49.932;8.308;2022-12-07T03:29:13;3.50;99.90
12557;DHT22;6344;49.932;8.308;2022-12-07T03:31:55;3.50;99.90
12557;DHT22;6344;49.932;8.308;2022-12-07T03:34:30;3.50;99.90
12557;DHT22;6344;49.932;8.308;2022-12-07T03:37:03;3.50;99.90
12557;DHT22;6344;49.932;8.308;2022-12-07T03:39:36;3.50;99.90
12557;DHT22;6344;49.932;8.308;2022-12-07T03:42:07;3.50;99.90
12557;DHT22;6344;49.932;8.308;2022-12-07T03:44:40;3.50;99.90
12557;DHT22;6344;49.932;8.308;2022-12-07T03:47:15;3.50;99.90
12557;DHT22;6344;49.932;8.308;2022-12-07T03:49:48;3.50;99.90
12557;DHT22;6344;49.932;8.308;2022-12-07T03:52:21;3.50;99.90
12557;DHT22;6344;49.932;8.308;2022-12-07T03:54:56;3.60;99.90
12557;DHT22;6344;49.932;8.308;2022-12-07T03:57:25;3.60;99.90
12557;DHT22;6344;49.932;8.308;2022-12-07T03:59:54;3.60;99.90
12557;DHT22;6344;49.932;8.308;2022-12-07T04:02:24;3.70;99.90
12557;DHT22;6344;49.932;8.308;2022-12-07T04:04:51;3.70;99.90
12557;DHT22;6344;49.932;8.308;2022-12-07T04:07:20;3.70;99.90
12557;DHT22;6344;49.932;8.308;2022-12-07T04:09:53;3.60;99.90
12557;DHT22;6344;49.932;8.308;2022-12-07T04:12:20;3.70;99.90
12557;DHT22;6344;49.932;8.308;2022-12-07T04:14:55;3.70;99.90
12557;DHT22;6344;49.932;8.308;2022-12-07T04:17:23;3.80;99.90
12557;DHT22;6344;49.932;8.308;2022-12-07T04:19:49;3.80;99.90
12557;DHT22;6344;49.932;8.308;2022-12-07T04:22:16;3.70;99.90
12557;DHT22;6344;49.932;8.308;2022-12-07T04:24:45;3.80;99.90
12557;DHT22;6344;49.932;8.308;2022-12-07T04:27:12;3.90;99.90
12557;DHT22;6344;49.932;8.308;2022-12-07T04:29:41;3.90;99.90
12557;DHT22;6344;49.932;8.308;2022-12-07T04:32:09;3.80;99.90
12557;DHT22;6344;49.932;8.308;2022-12-07T04:34:39;3.80;99.90
12557;DHT22;6344;49.932;8.308;2022-12-07T04:37:05;3.90;99.90
12557;DHT22;6344;49.932;8.308;2022-12-07T04:39:37;3.90;99.90
12557;DHT22;6344;49.932;8.308;2022-12-07T04:42:04;3.80;99.90
12557;DHT22;6344;49.932;8.308;2022-12-07T04:44:31;3.90;99.90
12557;DHT22;6344;49.932;8.308;2022-12-07T04:46:57;3.90;99.90
12557;DHT22;6344;49.932;8.308;2022-12-07T04:49:27;3.90;99.90
12557;DHT22;6344;49.932;8.308;2022-12-07T04:51:58;3.90;99.90
12557;DHT22;6344;49.932;8.308;2022-12-07T04:54:26;3.90;99.90
12557;DHT22;6344;49.932;8.308;2022-12-07T04:56:59;3.90;99.90
12557;DHT22;6344;49.932;8.308;2022-12-07T04:59:26;3.90;99.90
12557;DHT22;6344;49.932;8.308;2022-12-07T05:01:52;3.90;99.90
12557;DHT22;6344;49.932;8.308;2022-12-07T05:04:19;4.00;99.90
12557;DHT22;6344;49.932;8.308;2022-12-07T05:06:46;4.00;99.90
12557;DHT22;6344;49.932;8.308;2022-12-07T05:09:14;4.00;99.90
12557;DHT22;6344;49.932;8.308;2022-12-07T05:11:45;4.00;99.90
12557;DHT22;6344;49.932;8.308;2022-12-07T05:14:21;4.00;99.90
12557;DHT22;6344;49.932;8.308;2022-12-07T05:16:52;3.90;99.90
12557;DHT22;6344;49.932;8.308;2022-12-07T05:19:21;3.90;99.90
12557;DHT22;6344;49.932;8.308;2022-12-07T05:21:50;3.90;99.90
12557;DHT22;6344;49.932;8.308;2022-12-07T05:24:18;3.90;99.90
12557;DHT22;6344;49.932;8.308;2022-12-07T05:26:47;3.90;99.90
12557;DHT22;6344;49.932;8.308;2022-12-07T05:29:16;3.90;99.90
12557;DHT22;6344;49.932;8.308;2022-12-07T05:31:47;3.90;99.90
12557;DHT22;6344;49.932;8.308;2022-12-07T05:34:15;3.80;99.90
12557;DHT22;6344;49.932;8.308;2022-12-07T05:36:42;3.80;99.90
12557;DHT22;6344;49.932;8.308;2022-12-07T05:39:15;3.90;99.90
12557;DHT22;6344;49.932;8.308;2022-12-07T05:41:46;3.90;99.90
12557;DHT22;6344;49.932;8.308;2022-12-07T05:44:33;3.90;99.90
12557;DHT22;6344;49.932;8.308;2022-12-07T05:47:02;3.80;99.90
12557;DHT22;6344;49.932;8.308;2022-12-07T05:49:30;3.90;99.90
12557;DHT22;6344;49.932;8.308;2022-12-07T05:51:58;3.90;99.90
12557;DHT22;6344;49.932;8.308;2022-12-07T05:54:25;4.00;99.90
12557;DHT22;6344;49.932;8.308;2022-12-07T05:56:58;3.90;99.90
12557;DHT22;6344;49.932;8.308;2022-12-07T05:59:28;4.00;99.90
12557;DHT22;6344;49.932;8.308;2022-12-07T06:01:55;3.90;99.90
12557;DHT22;6344;49.932;8.308;2022-12-07T06:04:27;3.90;99.90
12557;DHT22;6344;49.932;8.308;2022-12-07T06:06:57;3.90;99.90
12557;DHT22;6344;49.932;8.308;2022-12-07T06:09:25;3.90;99.90
12557;DHT22;6344;49.932;8.308;2022-12-07T06:11:53;3.90;99.90
12557;DHT22;6344;49.932;8.308;2022-12-07T06:14:39;4.00;99.90
12557;DHT22;6344;49.932;8.308;2022-12-07T06:17:07;4.00;99.90
12557;DHT22;6344;49.932;8.308;2022-12-07T06:19:35;4.00;99.90
12557;DHT22;6344;49.932;8.308;2022-12-07T06:22:05;4.00;99.90
12557;DHT22;6344;49.932;8.308;2022-12-07T06:24:33;4.00;99.90
12557;DHT22;6344;49.932;8.308;2022-12-07T06:27:01;4.10;99.90
12557;DHT22;6344;49.932;8.308;2022-12-07T06:29:31;4.10;99.90
12557;DHT22;6344;49.932;8.308;2022-12-07T06:32:02;4.00;99.90
12557;DHT22;6344;49.932;8.308;2022-12-07T06:34:30;4.00;99.90
12557;DHT22;6344;49.932;8.308;2022-12-07T06:36:59;4.00;99.90
12557;DHT22;6344;49.932;8.308;2022-12-07T06:39:44;3.90;99.90
12557;DHT22;6344;49.932;8.308;2022-12-07T06:42:15;3.80;99.90
12557;DHT22;6344;49.932;8.308;2022-12-07T06:44:44;3.80;99.90
12557;DHT22;6344;49.932;8.308;2022-12-07T06:47:12;3.80;99.90
12557;DHT22;6344;49.932;8.308;2022-12-07T06:49:40;3.80;99.90
12557;DHT22;6344;49.932;8.308;2022-12-07T06:52:09;3.80;99.90
12557;DHT22;6344;49.932;8.308;2022-12-07T06:54:37;3.70;99.90
12557;DHT22;6344;49.932;8.308;2022-12-07T06:57:14;3.80;99.90
12557;DHT22;6344;49.932;8.308;2022-12-07T06:59:43;3.70;99.90
12557;DHT22;6344;49.932;8.308;2022-12-07T07:02:15;3.70;99.90
12557;DHT22;6344;49.932;8.308;2022-12-07T07:04:48;3.70;99.90
12557;DHT22;6344;49.932;8.308;2022-12-07T07:07:17;3.70;99.90
12557;DHT22;6344;49.932;8.308;2022-12-07T07:09:44;3.60;99.90
12557;DHT22;6344;49.932;8.308;2022-12-07T07:12:12;3.60;99.90
12557;DHT22;6344;49.932;8.308;2022-12-07T07:14:42;3.60;99.90
12557;DHT22;6344;49.932;8.308;2022-12-07T07:17:20;3.70;99.90
12557;DHT22;6344;49.932;8.308;2022-12-07T07:19:50;3.60;99.90
12557;DHT22;6344;49.932;8.308;2022-12-07T07:22:20;3.70;99.90
12557;DHT22;6344;49.932;8.308;2022-12-07T07:24:50;3.70;99.90
12557;DHT22;6344;49.932;8.308;2022-12-07T07:27:16;3.80;99.90
12557;DHT22;6344;49.932;8.308;2022-12-07T07:29:45;3.80;99.90
12557;DHT22;6344;49.932;8.308;2022-12-07T07:32:13;3.90;99.90
12557;DHT22;6344;49.932;8.308;2022-12-07T07:34:43;3.90;99.90
12557;DHT22;6344;49.932;8.308;2022-12-07T07:37:23;3.90;99.90
12557;DHT22;6344;49.932;8.308;2022-12-07T07:39:50;3.90;99.90
12557;DHT22;6344;49.932;8.308;2022-12-07T07:42:18;4.00;99.90
12557;DHT22;6344;49.932;8.308;2022-12-07T07:44:45;4.00;99.90
12557;DHT22;6344;49.932;8.308;2022-12-07T07:47:12;3.90;99.90
12557;DHT22;6344;49.932;8.308;2022-12-07T07:49:40;4.00;99.90
12557;DHT22;6344;49.932;8.308;2022-12-07T07:52:10;4.00;99.90
12557;DHT22;6344;49.932;8.308;2022-12-07T07:54:36;4.10;99.90
12557;DHT22;6344;49.932;8.308;2022-12-07T07:57:05;4.00;99.90
12557;DHT22;6344;49.932;8.308;2022-12-07T07:59:34;4.10;99.90
12557;DHT22;6344;49.932;8.308;2022-12-07T08:02:02;4.10;99.90
12557;DHT22;6344;49.932;8.308;2022-12-07T08:04:29;4.10;99.90
12557;DHT22;6344;49.932;8.308;2022-12-07T08:06:57;4.20;99.90
12557;DHT22;6344;49.932;8.308;2022-12-07T08:09:27;4.20;99.90
12557;DHT22;6344;49.932;8.308;2022-12-07T08:11:54;4.20;99.90
12557;DHT22;6344;49.932;8.308;2022-12-07T08:14:20;4.20;99.90
12557;DHT22;6344;49.932;8.308;2022-12-07T08:16:50;4.30;99.90
12557;DHT22;6344;49.932;8.308;2022-12-07T08:19:17;4.30;99.90
12557;DHT22;6344;49.932;8.308;2022-12-07T08:21:47;4.30;99.90
12557;DHT22;6344;49.932;8.308;2022-12-07T08:24:14;4.30;99.90
12557;DHT22;6344;49.932;8.308;2022-12-07T08:26:44;4.30;99.90
12557;DHT22;6344;49.932;8.308;2022-12-07T08:29:15;4.30;99.90
12557;DHT22;6344;49.932;8.308;2022-12-07T08:31:46;4.20;99.90
12557;DHT22;6344;49.932;8.308;2022-12-07T08:34:14;4.30;99.90
12557;DHT22;6344;49.932;8.308;2022-12-07T08:36:43;4.20;99.90
12557;DHT22;6344;49.932;8.308;2022-12-07T08:39:10;4.20;99.90
12557;DHT22;6344;49.932;8.308;2022-12-07T08:41:37;4.30;99.90
12557;DHT22;6344;49.932;8.308;2022-12-07T08:44:05;4.30;99.90
12557;DHT22;6344;49.932;8.308;2022-12-07T08:46:37;4.20;99.90
12557;DHT22;6344;49.932;8.308;2022-12-07T08:49:07;4.20;99.90
12557;DHT22;6344;49.932;8.308;2022-12-07T08:51:34;4.20;99.90
12557;DHT22;6344;49.932;8.308;2022-12-07T08:54:10;4.20;99.90
12557;DHT22;6344;49.932;8.308;2022-12-07T08:56:43;4.20;99.90
12557;DHT22;6344;49.932;8.308;2022-12-07T08:59:13;4.20;99.90
12557;DHT22;6344;49.932;8.308;2022-12-07T09:01:44;4.40;99.90
12557;DHT22;6344;49.932;8.308;2022-12-07T09:04:11;4.50;99.90
12557;DHT22;6344;49.932;8.308;2022-12-07T09:06:44;4.60;99.90
12557;DHT22;6344;49.932;8.308;2022-12-07T09:09:11;4.80;99.90
12557;DHT22;6344;49.932;8.308;2022-12-07T09:11:45;4.80;99.90
12557;DHT22;6344;49.932;8.308;2022-12-07T09:14:13;4.80;99.90
12557;DHT22;6344;49.932;8.308;2022-12-07T09:16:44;4.90;99.90
12557;DHT22;6344;49.932;8.308;2022-12-07T09:19:13;4.90;99.90
12557;DHT22;6344;49.932;8.308;2022-12-07T09:21:40;4.70;99.90
12557;DHT22;6344;49.932;8.308;2022-12-07T09:24:07;4.60;99.90
12557;DHT22;6344;49.932;8.308;2022-12-07T09:26:34;4.50;99.90
12557;DHT22;6344;49.932;8.308;2022-12-07T09:29:02;4.40;99.90
12557;DHT22;6344;49.932;8.308;2022-12-07T09:31:30;4.30;99.90
12557;DHT22;6344;49.932;8.308;2022-12-07T09:33:58;4.20;99.90
12557;DHT22;6344;49.932;8.308;2022-12-07T09:36:25;4.10;99.90
12557;DHT22;6344;49.932;8.308;2022-12-07T09:38:54;4.00;99.90
12557;DHT22;6344;49.932;8.308;2022-12-07T09:41:21;4.10;99.90
12557;DHT22;6344;49.932;8.308;2022-12-07T09:43:48;4.10;99.90
12557;DHT22;6344;49.932;8.308;2022-12-07T09:46:17;4.30;99.90
12557;DHT22;6344;49.932;8.308;2022-12-07T09:48:46;4.50;99.90
12557;DHT22;6344;49.932;8.308;2022-12-07T09:51:20;4.70;99.90
12557;DHT22;6344;49.932;8.308;2022-12-07T09:53:49;4.80;99.90
12557;DHT22;6344;49.932;8.308;2022-12-07T09:56:18;4.80;99.90
12557;DHT22;6344;49.932;8.308;2022-12-07T09:58:51;4.90;99.90
12557;DHT22;6344;49.932;8.308;2022-12-07T10:01:30;5.10;99.90
12557;DHT22;6344;49.932;8.308;2022-12-07T10:04:08;5.50;99.90
12557;DHT22;6344;49.932;8.308;2022-12-07T10:06:38;6.00;99.90
12557;DHT22;6344;49.932;8.308;2022-12-07T10:09:11;6.30;99.90
12557;DHT22;6344;49.932;8.308;2022-12-07T10:12:03;6.70;99.90
12557;DHT22;6344;49.932;8.308;2022-12-07T10:14:33;7.50;99.90
12557;DHT22;6344;49.932;8.308;2022-12-07T10:17:30;7.50;99.90
12557;DHT22;6344;49.932;8.308;2022-12-07T10:20:19;7.30;99.90
12557;DHT22;6344;49.932;8.308;2022-12-07T10:23:00;6.90;99.90
12557;DHT22;6344;49.932;8.308;2022-12-07T10:25:32;6.70;99.90
12557;DHT22;6344;49.932;8.308;2022-12-07T10:28:14;6.60;99.90
12557;DHT22;6344;49.932;8.308;2022-12-07T10:30:51;6.70;99.90
12557;DHT22;6344;49.932;8.308;2022-12-07T10:33:28;7.10;99.90
12557;DHT22;6344;49.932;8.308;2022-12-07T10:36:01;7.50;99.90
12557;DHT22;6344;49.932;8.308;2022-12-07T10:38:45;7.80;99.90
12557;DHT22;6344;49.932;8.308;2022-12-07T10:41:12;8.50;47.00
12557;DHT22;6344;49.932;8.308;2022-12-07T10:43:47;8.80;24.50
12557;DHT22;6344;49.932;8.308;2022-12-07T10:46:41;9.40;1.00
12557;DHT22;6344;49.932;8.308;2022-12-07T10:52:49;8.20;5.40
12557;DHT22;6344;49.932;8.308;2022-12-07T10:55:31;8.50;1.00
12557;DHT22;6344;49.932;8.308;2022-12-07T10:58:19;9.30;1.00
12557;DHT22;6344;49.932;8.308;2022-12-07T11:00:57;9.70;1.00
12557;DHT22;6344;49.932;8.308;2022-12-07T11:03:36;9.70;1.00
12557;DHT22;6344;49.932;8.308;2022-12-07T11:06:18;9.10;1.00
12557;DHT22;6344;49.932;8.308;2022-12-07T11:09:10;8.30;1.00
12557;DHT22;6344;49.932;8.308;2022-12-07T11:11:48;7.90;1.00
12557;DHT22;6344;49.932;8.308;2022-12-07T11:14:23;7.90;15.10
12557;DHT22;6344;49.932;8.308;2022-12-07T11:16:59;7.80;1.00
12557;DHT22;6344;49.932;8.308;2022-12-07T11:19:42;7.60;1.00
12557;DHT22;6344;49.932;8.308;2022-12-07T11:22:20;7.60;1.00
12557;DHT22;6344;49.932;8.308;2022-12-07T11:25:01;7.40;1.00
12557;DHT22;6344;49.932;8.308;2022-12-07T11:27:34;7.00;8.60
12557;DHT22;6344;49.932;8.308;2022-12-07T11:30:18;6.90;24.70
12557;DHT22;6344;49.932;8.308;2022-12-07T11:32:59;6.80;30.40
12557;DHT22;6344;49.932;8.308;2022-12-07T11:35:39;7.00;5.90
12557;DHT22;6344;49.932;8.308;2022-12-07T11:38:14;6.90;18.70
12557;DHT22;6344;49.932;8.308;2022-12-07T11:40:45;6.80;44.70
12557;DHT22;6344;49.932;8.308;2022-12-07T11:43:20;6.90;50.70
12557;DHT22;6344;49.932;8.308;2022-12-07T11:45:55;7.30;41.20
12557;DHT22;6344;49.932;8.308;2022-12-07T11:48:32;8.00;1.00
12557;DHT22;6344;49.932;8.308;2022-12-07T11:51:01;8.80;1.00
12557;DHT22;6344;49.932;8.308;2022-12-07T11:53:33;8.90;1.00
12557;DHT22;6344;49.932;8.308;2022-12-07T11:56:09;8.80;1.00
12557;DHT22;6344;49.932;8.308;2022-12-07T11:58:47;8.80;1.00
12557;DHT22;6344;49.932;8.308;2022-12-07T12:01:26;9.00;1.00
12557;DHT22;6344;49.932;8.308;2022-12-07T12:04:00;8.50;1.00
12557;DHT22;6344;49.932;8.308;2022-12-07T12:06:28;8.00;1.00
12557;DHT22;6344;49.932;8.308;2022-12-07T12:09:03;7.70;1.00
12557;DHT22;6344;49.932;8.308;2022-12-07T12:11:50;7.40;1.00
12557;DHT22;6344;49.932;8.308;2022-12-07T12:14:35;7.20;1.00
12557;DHT22;6344;49.932;8.308;2022-12-07T12:17:19;7.10;8.20
12557;DHT22;6344;49.932;8.308;2022-12-07T12:20:00;6.90;33.60
12557;DHT22;6344;49.932;8.308;2022-12-07T12:22:35;6.70;48.10
12557;DHT22;6344;49.932;8.308;2022-12-07T12:25:06;6.50;99.90
12557;DHT22;6344;49.932;8.308;2022-12-07T12:27:37;6.40;99.90
12557;DHT22;6344;49.932;8.308;2022-12-07T12:30:06;6.50;96.20
12557;DHT22;6344;49.932;8.308;2022-12-07T12:32:42;6.60;60.10
12557;DHT22;6344;49.932;8.308;2022-12-07T12:35:28;6.60;1.00
12557;DHT22;6344;49.932;8.308;2022-12-07T12:38:31;6.70;1.00
12557;DHT22;6344;49.932;8.308;2022-12-07T12:41:00;6.90;1.00
12557;DHT22;6344;49.932;8.308;2022-12-07T12:43:53;7.20;1.00
12557;DHT22;6344;49.932;8.308;2022-12-07T12:46:51;7.20;1.00
12557;DHT22;6344;49.932;8.308;2022-12-07T12:49:40;7.30;1.00
12557;DHT22;6344;49.932;8.308;2022-12-07T12:52:46;7.40;1.00
12557;DHT22;6344;49.932;8.308;2022-12-07T12:58:33;7.00;1.00
12557;DHT22;6344;49.932;8.308;2022-12-07T13:01:43;6.90;1.00
12557;DHT22;6344;49.932;8.308;2022-12-07T13:04:29;6.70;1.00
12557;DHT22;6344;49.932;8.308;2022-12-07T13:06:57;7.20;1.00
12557;DHT22;6344;49.932;8.308;2022-12-07T13:09:28;7.90;1.00
12557;DHT22;6344;49.932;8.308;2022-12-07T13:12:01;8.30;1.00
12557;DHT22;6344;49.932;8.308;2022-12-07T13:14:55;8.70;1.00
12557;DHT22;6344;49.932;8.308;2022-12-07T13:18:02;9.20;1.00
12557;DHT22;6344;49.932;8.308;2022-12-07T13:20:47;9.20;1.00
12557;DHT22;6344;49.932;8.308;2022-12-07T13:23:18;9.60;1.00
12557;DHT22;6344;49.932;8.308;2022-12-07T13:25:54;9.60;1.00
12557;DHT22;6344;49.932;8.308;2022-12-07T13:28:23;9.80;1.00
12557;DHT22;6344;49.932;8.308;2022-12-07T13:31:11;9.70;1.00
12557;DHT22;6344;49.932;8.308;2022-12-07T13:33:47;9.60;1.00
12557;DHT22;6344;49.932;8.308;2022-12-07T13:36:21;10.10;1.00
12557;DHT22;6344;49.932;8.308;2022-12-07T13:38:54;9.50;1.00
12557;DHT22;6344;49.932;8.308;2022-12-07T13:41:27;9.90;1.00
12557;DHT22;6344;49.932;8.308;2022-12-07T13:44:05;9.30;1.00
12557;DHT22;6344;49.932;8.308;2022-12-07T13:46:44;9.20;1.00
12557;DHT22;6344;49.932;8.308;2022-12-07T13:49:22;8.90;1.00
12557;DHT22;6344;49.932;8.308;2022-12-07T13:51:50;8.60;1.00
12557;DHT22;6344;49.932;8.308;2022-12-07T13:54:22;8.80;1.00
12557;DHT22;6344;49.932;8.308;2022-12-07T13:56:51;8.70;1.00
12557;DHT22;6344;49.932;8.308;2022-12-07T13:59:24;8.80;1.00
12557;DHT22;6344;49.932;8.308;2022-12-07T14:01:53;8.80;1.00
12557;DHT22;6344;49.932;8.308;2022-12-07T14:04:34;8.40;1.00
12557;DHT22;6344;49.932;8.308;2022-12-07T14:07:19;8.00;1.00
12557;DHT22;6344;49.932;8.308;2022-12-07T14:09:54;7.70;1.00
12557;DHT22;6344;49.932;8.308;2022-12-07T14:12:24;7.50;1.00
12557;DHT22;6344;49.932;8.308;2022-12-07T14:14:52;7.30;1.00
12557;DHT22;6344;49.932;8.308;2022-12-07T14:17:24;7.10;1.00
12557;DHT22;6344;49.932;8.308;2022-12-07T14:19:58;7.00;1.00
12557;DHT22;6344;49.932;8.308;2022-12-07T14:22:31;6.80;1.00
12557;DHT22;6344;49.932;8.308;2022-12-07T14:25:20;6.60;1.00
12557;DHT22;6344;49.932;8.308;2022-12-07T14:27:57;6.50;1.00
12557;DHT22;6344;49.932;8.308;2022-12-07T14:30:25;6.30;1.00
12557;DHT22;6344;49.932;8.308;2022-12-07T14:32:55;6.00;13.20
12557;DHT22;6344;49.932;8.308;2022-12-07T14:35:24;5.70;95.70
12557;DHT22;6344;49.932;8.308;2022-12-07T14:37:51;5.50;99.90
12557;DHT22;6344;49.932;8.308;2022-12-07T14:40:19;5.50;99.90
12557;DHT22;6344;49.932;8.308;2022-12-07T14:42:54;5.50;99.90
12557;DHT22;6344;49.932;8.308;2022-12-07T14:45:27;5.50;99.90
12557;DHT22;6344;49.932;8.308;2022-12-07T14:47:54;5.40;99.90
12557;DHT22;6344;49.932;8.308;2022-12-07T14:50:21;5.40;99.90
12557;DHT22;6344;49.932;8.308;2022-12-07T14:52:52;5.30;99.90
12557;DHT22;6344;49.932;8.308;2022-12-07T14:55:26;5.30;99.90
12557;DHT22;6344;49.932;8.308;2022-12-07T14:57:53;5.30;99.90
12557;DHT22;6344;49.932;8.308;2022-12-07T15:00:22;5.20;99.90
12557;DHT22;6344;49.932;8.308;2022-12-07T15:02:54;5.30;99.90
12557;DHT22;6344;49.932;8.308;2022-12-07T15:05:24;5.30;99.90
12557;DHT22;6344;49.932;8.308;2022-12-07T15:07:52;5.20;99.90
12557;DHT22;6344;49.932;8.308;2022-12-07T15:10:22;5.10;99.90
12557;DHT22;6344;49.932;8.308;2022-12-07T15:12:56;5.00;99.90
12557;DHT22;6344;49.932;8.308;2022-12-07T15:15:46;4.90;99.90
12557;DHT22;6344;49.932;8.308;2022-12-07T15:18:13;4.80;99.90
12557;DHT22;6344;49.932;8.308;2022-12-07T15:20:42;4.80;99.90
12557;DHT22;6344;49.932;8.308;2022-12-07T15:23:12;4.70;99.90
12557;DHT22;6344;49.932;8.308;2022-12-07T15:25:44;4.80;99.90
12557;DHT22;6344;49.932;8.308;2022-12-07T15:28:11;4.80;99.90
12557;DHT22;6344;49.932;8.308;2022-12-07T15:30:38;5.00;99.90
12557;DHT22;6344;49.932;8.308;2022-12-07T15:33:07;5.00;99.90
12557;DHT22;6344;49.932;8.308;2022-12-07T15:35:38;5.00;99.90
12557;DHT22;6344;49.932;8.308;2022-12-07T15:38:05;5.10;99.90
12557;DHT22;6344;49.932;8.308;2022-12-07T15:40:35;5.10;99.90
12557;DHT22;6344;49.932;8.308;2022-12-07T15:43:02;5.10;99.90
12557;DHT22;6344;49.932;8.308;2022-12-07T15:45:49;5.10;99.90
12557;DHT22;6344;49.932;8.308;2022-12-07T15:48:15;5.10;99.90
12557;DHT22;6344;49.932;8.308;2022-12-07T15:50:42;5.00;99.90
12557;DHT22;6344;49.932;8.308;2022-12-07T15:53:14;4.90;99.90
12557;DHT22;6344;49.932;8.308;2022-12-07T15:55:42;5.00;99.90
12557;DHT22;6344;49.932;8.308;2022-12-07T15:58:09;5.00;99.90
12557;DHT22;6344;49.932;8.308;2022-12-07T16:00:35;4.90;99.90
12557;DHT22;6344;49.932;8.308;2022-12-07T16:03:02;5.00;99.90
12557;DHT22;6344;49.932;8.308;2022-12-07T16:05:30;5.00;99.90
12557;DHT22;6344;49.932;8.308;2022-12-07T16:08:01;5.00;99.90
12557;DHT22;6344;49.932;8.308;2022-12-07T16:10:28;5.00;99.90
12557;DHT22;6344;49.932;8.308;2022-12-07T16:12:58;4.90;99.90
12557;DHT22;6344;49.932;8.308;2022-12-07T16:15:28;4.80;99.90
12557;DHT22;6344;49.932;8.308;2022-12-07T16:17:54;4.60;99.90
12557;DHT22;6344;49.932;8.308;2022-12-07T16:20:22;4.40;99.90
12557;DHT22;6344;49.932;8.308;2022-12-07T16:22:51;4.30;99.90
12557;DHT22;6344;49.932;8.308;2022-12-07T16:25:27;4.20;99.90
12557;DHT22;6344;49.932;8.308;2022-12-07T16:27:57;4.00;99.90
12557;DHT22;6344;49.932;8.308;2022-12-07T16:30:24;3.90;99.90
12557;DHT22;6344;49.932;8.308;2022-12-07T16:32:51;3.90;99.90
12557;DHT22;6344;49.932;8.308;2022-12-07T16:35:19;3.80;99.90
12557;DHT22;6344;49.932;8.308;2022-12-07T16:37:46;3.70;99.90
12557;DHT22;6344;49.932;8.308;2022-12-07T16:40:15;3.60;99.90
12557;DHT22;6344;49.932;8.308;2022-12-07T16:42:43;3.60;99.90
12557;DHT22;6344;49.932;8.308;2022-12-07T16:45:11;3.50;99.90
12557;DHT22;6344;49.932;8.308;2022-12-07T16:47:39;3.50;99.90
12557;DHT22;6344;49.932;8.308;2022-12-07T16:50:07;3.50;99.90